createdAt,value
2022-12-03T00:02:18.958Z,102619.59
2022-12-03T00:04:45.718Z,102619.53
2022-12-03T00:07:12.090Z,102615.13
2022-12-03T00:09:38.439Z,102612.66
2022-12-03T00:12:19.812Z,102611.91
2022-12-03T00:17:32.709Z,102617.09
2022-12-03T00:20:22.796Z,102604.97
2022-12-03T00:23:04.104Z,102619.66
2022-12-03T00:28:11.194Z,102609.31
2022-12-03T00:30:44.379Z,102607.63
2022-12-03T00:33:10.800Z,102609.31
2022-12-03T00:35:40.609Z,102605.03
2022-12-03T00:38:09.955Z,102601.50
2022-12-03T00:40:58.846Z,102596.31
2022-12-03T00:43:23.513Z,102599.72
2022-12-03T00:46:36.949Z,102595.47
2022-12-03T00:49:09.065Z,102588.63
2022-12-03T00:51:35.852Z,102596.38
2022-12-03T00:55:01.573Z,102593.88
2022-12-03T00:57:31.395Z,102587.09
2022-12-03T01:00:30.768Z,102587.97
2022-12-03T01:02:57.418Z,102587.09
2022-12-03T01:05:23.750Z,102578.50
2022-12-03T01:07:50.179Z,102584.63
2022-12-03T01:11:00.378Z,102575.97
2022-12-03T01:13:29.720Z,102574.22
2022-12-03T01:19:36.602Z,102563.03
2022-12-03T01:23:03.836Z,102572.44
2022-12-03T01:25:37.901Z,102569.06
2022-12-03T01:28:41.674Z,102569.06
2022-12-03T01:34:20.637Z,102567.19
2022-12-03T01:37:40.134Z,102558.72
2022-12-03T01:44:26.283Z,102566.28
2022-12-03T01:49:46.826Z,102559.38
2022-12-03T01:52:16.651Z,102564.56
2022-12-03T01:54:51.910Z,102560.22
2022-12-03T02:07:23.131Z,102561.84
2022-12-03T02:16:24.121Z,102558.34
2022-12-03T02:30:05.128Z,102549.50
2022-12-03T02:36:19.028Z,102553.75
2022-12-03T02:47:35.577Z,102545.00
2022-12-03T02:50:02.535Z,102547.44
2022-12-03T02:52:29.251Z,102545.69
2022-12-03T02:58:46.931Z,102540.44
2022-12-03T03:01:22.832Z,102549.84
2022-12-03T03:03:51.855Z,102539.34
2022-12-03T03:06:19.914Z,102537.59
2022-12-03T03:08:47.778Z,102534.13
2022-12-03T03:15:01.835Z,102526.28
2022-12-03T03:21:18.088Z,102530.47
2022-12-03T03:24:02.826Z,102535.53
2022-12-03T03:26:31.718Z,102522.59
2022-12-03T03:29:02.656Z,102522.47
2022-12-03T03:31:29.126Z,102524.22
2022-12-03T03:37:42.974Z,102520.72
2022-12-03T03:40:32.422Z,102515.53
2022-12-03T03:46:54.995Z,102511.16
2022-12-03T03:53:51.664Z,102505.00
2022-12-03T03:56:21.956Z,102505.84
2022-12-03T03:58:49.184Z,102510.09
2022-12-03T04:01:25.315Z,102506.69
2022-12-03T04:03:54.184Z,102499.59
2022-12-03T04:06:23.288Z,102503.19
2022-12-03T04:09:19.857Z,102502.25
2022-12-03T04:12:07.651Z,102505.78
2022-12-03T04:14:34.004Z,102500.47
2022-12-03T04:17:04.130Z,102502.19
2022-12-03T04:23:13.774Z,102495.28
2022-12-03T04:29:32.080Z,102496.94
2022-12-03T04:32:19.326Z,102499.53
2022-12-03T04:37:57.538Z,102483.13
2022-12-03T04:48:10.499Z,102480.31
2022-12-03T04:54:34.542Z,102479.63
2022-12-03T05:00:50.143Z,102486.31
2022-12-03T05:07:00.327Z,102484.66
2022-12-03T05:09:29.738Z,102485.50
2022-12-03T05:11:56.159Z,102483.06
2022-12-03T05:14:22.627Z,102488.28
2022-12-03T05:16:49.275Z,102487.44
2022-12-03T05:19:48.742Z,102477.16
2022-12-03T05:22:30.310Z,102478.97
2022-12-03T05:25:03.890Z,102482.41
2022-12-03T05:27:30.284Z,102479.88
2022-12-03T05:29:56.692Z,102479.94
2022-12-03T05:32:24.040Z,102479.03
2022-12-03T05:34:53.224Z,102480.72
2022-12-03T05:37:19.732Z,102475.56
2022-12-03T05:39:52.241Z,102473.03
2022-12-03T05:42:38.451Z,102474.84
2022-12-03T05:45:05.368Z,102477.56
2022-12-03T05:47:34.742Z,102474.13
2022-12-03T05:50:04.263Z,102464.63
2022-12-03T05:52:38.099Z,102465.44
2022-12-03T05:55:06.907Z,102461.13
2022-12-03T05:57:40.868Z,102462.03
2022-12-03T06:00:17.017Z,102455.16
2022-12-03T06:02:44.450Z,102450.03
2022-12-03T06:05:12.792Z,102456.13
2022-12-03T06:07:42.361Z,102456.00
2022-12-03T06:10:14.694Z,102456.00
2022-12-03T06:12:48.774Z,102450.91
2022-12-03T06:15:19.082Z,102440.53
2022-12-03T06:17:48.039Z,102438.81
2022-12-03T06:20:19.059Z,102445.66
2022-12-03T06:22:45.886Z,102435.38
2022-12-03T06:25:20.637Z,102437.16
2022-12-03T06:27:46.976Z,102433.63
2022-12-03T06:30:19.493Z,102438.88
2022-12-03T06:32:45.859Z,102438.81
2022-12-03T06:35:12.574Z,102439.69
2022-12-03T06:37:43.132Z,102440.47
2022-12-03T06:40:10.159Z,102437.03
2022-12-03T06:42:36.481Z,102443.91
2022-12-03T06:45:15.927Z,102437.09
2022-12-03T06:47:44.319Z,102441.38
2022-12-03T06:50:11.074Z,102434.44
2022-12-03T06:52:37.425Z,102434.59
2022-12-03T06:55:04.050Z,102440.81
2022-12-03T06:57:33.684Z,102433.91
2022-12-03T07:00:04.930Z,102436.41
2022-12-03T07:02:37.335Z,102432.19
2022-12-03T07:05:05.369Z,102432.19
2022-12-03T07:07:32.218Z,102448.72
2022-12-03T07:10:01.764Z,102446.91
2022-12-03T07:12:28.135Z,102440.94
2022-12-03T07:14:54.645Z,102445.22
2022-12-03T07:17:23.821Z,102445.34
2022-12-03T07:20:15.148Z,102445.53
2022-12-03T07:22:49.131Z,102451.56
2022-12-03T07:25:21.294Z,102455.19
2022-12-03T07:27:50.051Z,102453.50
2022-12-03T07:30:19.502Z,102452.72
2022-12-03T07:32:45.842Z,102457.09
2022-12-03T07:35:24.539Z,102456.41
2022-12-03T07:37:51.387Z,102458.94
2022-12-03T07:40:18.067Z,102462.41
2022-12-03T07:42:47.259Z,102458.28
2022-12-03T07:45:21.127Z,102462.47
2022-12-03T07:47:48.690Z,102456.56
2022-12-03T07:50:15.174Z,102460.03
2022-12-03T07:52:46.198Z,102462.69
2022-12-03T07:55:13.667Z,102457.63
2022-12-03T07:57:40.155Z,102464.50
2022-12-03T08:00:13.698Z,102453.38
2022-12-03T08:02:40.433Z,102460.03
2022-12-03T08:05:12.722Z,102456.81
2022-12-03T08:07:39.166Z,102459.06
2022-12-03T08:10:09.285Z,102453.88
2022-12-03T08:12:42.532Z,102451.50
2022-12-03T08:15:13.863Z,102451.50
2022-12-03T08:17:45.693Z,102456.59
2022-12-03T08:20:29.327Z,102455.19
2022-12-03T08:22:57.577Z,102450.91
2022-12-03T08:25:31.632Z,102445.69
2022-12-03T08:28:33.680Z,102447.41
2022-12-03T08:31:32.638Z,102444.81
2022-12-03T08:34:15.516Z,102441.56
2022-12-03T08:36:46.196Z,102446.22
2022-12-03T08:45:41.325Z,102437.00
2022-12-03T08:48:44.006Z,102436.16
2022-12-03T08:51:25.233Z,102441.31
2022-12-03T08:54:03.598Z,102439.78
2022-12-03T08:56:35.024Z,102434.75
2022-12-03T08:59:30.716Z,102434.03
2022-12-03T09:02:01.359Z,102432.22
2022-12-03T09:04:36.856Z,102435.78
2022-12-03T09:07:14.826Z,102434.03
2022-12-03T09:09:46.809Z,102434.03
2022-12-03T09:12:16.170Z,102432.22
2022-12-03T09:14:42.491Z,102425.38
2022-12-03T09:17:12.235Z,102431.31
2022-12-03T09:20:07.067Z,102421.09
2022-12-03T09:22:34.397Z,102420.28
2022-12-03T09:25:03.895Z,102427.19
2022-12-03T09:27:41.757Z,102421.28
2022-12-03T09:30:08.695Z,102421.28
2022-12-03T09:32:35.543Z,102418.03
2022-12-03T09:35:01.941Z,102423.09
2022-12-03T09:37:28.306Z,102420.50
2022-12-03T09:39:54.632Z,102425.53
2022-12-03T09:42:26.819Z,102428.97
2022-12-03T09:44:54.395Z,102420.63
2022-12-03T09:47:23.834Z,102418.97
2022-12-03T09:49:50.394Z,102425.94
2022-12-03T09:52:25.096Z,102424.25
2022-12-03T09:54:54.103Z,102433.56
2022-12-03T09:57:22.941Z,102424.00
2022-12-03T09:59:56.265Z,102429.25
2022-12-03T10:02:27.433Z,102420.00
2022-12-03T10:05:02.256Z,102428.38
2022-12-03T10:07:28.743Z,102426.66
2022-12-03T10:15:23.814Z,102422.19
2022-12-03T10:17:53.207Z,102424.84
2022-12-03T10:20:27.635Z,102427.38
2022-12-03T10:22:54.729Z,102429.09
2022-12-03T10:25:47.990Z,102427.63
2022-12-03T10:28:31.127Z,102429.63
2022-12-03T10:30:59.127Z,102426.31
2022-12-03T10:33:59.286Z,102422.13
2022-12-03T10:36:26.523Z,102434.19
2022-12-03T10:39:37.522Z,102419.75
2022-12-03T10:42:18.816Z,102414.66
2022-12-03T10:44:46.410Z,102407.69
2022-12-03T10:47:17.710Z,102404.38
2022-12-03T10:49:51.878Z,102406.91
2022-12-03T10:52:30.882Z,102403.38
2022-12-03T10:54:57.651Z,102387.72
2022-12-03T10:57:25.147Z,102393.63
2022-12-03T10:59:54.707Z,102389.47
2022-12-03T11:02:30.135Z,102389.41
2022-12-03T11:04:58.163Z,102386.47
2022-12-03T11:07:33.920Z,102385.00
2022-12-03T11:10:01.702Z,102391.38
2022-12-03T11:12:36.889Z,102389.41
2022-12-03T11:15:11.464Z,102378.53
2022-12-03T11:17:43.796Z,102384.47
2022-12-03T11:20:38.607Z,102375.19
2022-12-03T11:23:10.506Z,102364.78
2022-12-03T11:25:50.417Z,102364.06
2022-12-03T11:28:24.237Z,102367.31
2022-12-03T11:30:53.698Z,102364.78
2022-12-03T11:33:27.232Z,102344.09
2022-12-03T11:36:09.784Z,102358.88
2022-12-03T11:38:53.337Z,102362.25
2022-12-03T11:42:03.549Z,102347.81
2022-12-03T11:44:38.762Z,102347.00
2022-12-03T11:47:15.415Z,102345.19
2022-12-03T11:49:47.661Z,102347.81
2022-12-03T11:52:25.411Z,102341.84
2022-12-03T11:55:19.460Z,102334.03
2022-12-03T11:57:46.086Z,102338.28
2022-12-03T12:00:30.629Z,102331.31
2022-12-03T12:03:04.024Z,102330.41
2022-12-03T12:05:33.619Z,102327.22
2022-12-03T12:08:02.520Z,102326.50
2022-12-03T12:10:48.900Z,102325.81
2022-12-03T12:14:03.962Z,102323.16
2022-12-03T12:16:58.354Z,102320.56
2022-12-03T12:19:42.089Z,102324.88
2022-12-03T12:22:31.669Z,102318.00
2022-12-03T12:25:02.972Z,102311.91
2022-12-03T12:27:46.202Z,102301.56
2022-12-03T12:30:24.970Z,102308.66
2022-12-03T12:33:26.588Z,102298.34
2022-12-03T12:35:53.715Z,102295.75
2022-12-03T12:38:24.441Z,102288.97
2022-12-03T12:40:50.976Z,102289.81
2022-12-03T12:43:33.063Z,102288.91
2022-12-03T12:49:58.231Z,102281.16
2022-12-03T12:52:32.533Z,102276.97
2022-12-03T12:55:04.336Z,102280.38
2022-12-03T12:57:34.572Z,102288.97
2022-12-03T13:00:01.011Z,102291.56
2022-12-03T13:17:37.410Z,102278.56
2022-12-03T13:23:37.671Z,102267.25
2022-12-03T13:26:39.286Z,102269.78
2022-12-03T13:29:23.868Z,102267.19
2022-12-03T13:31:54.152Z,102263.31
2022-12-03T13:38:17.056Z,102263.72
2022-12-03T13:40:43.745Z,102252.47
2022-12-03T13:43:20.261Z,102253.31
2022-12-03T13:45:49.193Z,102247.38
2022-12-03T13:55:32.207Z,102252.66
2022-12-03T14:02:38.029Z,102245.94
2022-12-03T14:05:07.530Z,102248.84
2022-12-03T14:07:58.889Z,102259.28
2022-12-03T14:10:25.298Z,102242.94
2022-12-03T14:13:43.958Z,102245.72
2022-12-03T14:16:14.056Z,102240.63
2022-12-03T14:18:44.953Z,102240.75
2022-12-03T14:21:11.312Z,102236.31
2022-12-03T14:23:41.451Z,102232.81
2022-12-03T14:26:10.555Z,102227.66
2022-12-03T14:31:25.971Z,102226.69
2022-12-03T14:33:53.732Z,102222.34
2022-12-03T14:36:20.132Z,102230.00
2022-12-03T14:38:56.096Z,102230.00
2022-12-03T14:44:38.994Z,102217.97
2022-12-03T14:47:05.578Z,102219.66
2022-12-03T14:49:35.199Z,102217.13
2022-12-03T14:52:08.484Z,102227.44
2022-12-03T14:54:44.587Z,102230.03
2022-12-03T14:57:16.348Z,102225.72
2022-12-03T14:59:47.458Z,102230.88
2022-12-03T15:02:13.998Z,102231.72
2022-12-03T15:04:43.889Z,102233.53
2022-12-03T15:07:10.465Z,102224.19
2022-12-03T15:09:36.981Z,102219.00
2022-12-03T15:15:55.683Z,102226.03
2022-12-03T15:22:31.809Z,102228.56
2022-12-03T15:25:02.504Z,102224.31
2022-12-03T15:27:34.501Z,102220.03
2022-12-03T15:38:11.624Z,102221.84
2022-12-03T15:41:30.812Z,102227.06
2022-12-03T15:44:03.570Z,102226.34
2022-12-03T15:46:33.458Z,102228.94
2022-12-03T15:49:07.371Z,102225.44
2022-12-03T15:51:40.045Z,102217.03
2022-12-03T15:54:14.382Z,102225.69
2022-12-03T15:56:41.071Z,102229.19
2022-12-03T16:02:55.626Z,102231.22
2022-12-03T16:05:43.843Z,102232.97
2022-12-03T16:08:17.876Z,102231.47
2022-12-03T16:10:44.853Z,102227.94
2022-12-03T16:13:11.297Z,102232.25
2022-12-03T16:19:24.711Z,102230.75
2022-12-03T16:22:24.864Z,102224.88
2022-12-03T16:24:54.267Z,102224.00
2022-12-03T16:27:25.796Z,102224.94
2022-12-03T16:29:57.302Z,102225.72
2022-12-03T16:32:29.090Z,102221.50
2022-12-03T16:35:32.229Z,102224.06
2022-12-03T16:41:42.487Z,102215.38
2022-12-03T16:48:18.792Z,102211.97
2022-12-03T16:50:48.397Z,102206.75
2022-12-03T16:53:22.341Z,102208.53
2022-12-03T16:59:35.792Z,102199.91
2022-12-03T17:05:49.985Z,102195.47
2022-12-03T17:08:57.661Z,102201.69
2022-12-03T17:11:24.032Z,102197.38
2022-12-03T17:14:21.763Z,102199.97
2022-12-03T17:16:51.354Z,102200.91
2022-12-03T17:23:05.880Z,102206.00
2022-12-03T17:29:43.334Z,102205.84
2022-12-03T17:33:08.967Z,102204.88
2022-12-03T17:35:35.475Z,102217.72
2022-12-03T17:44:24.866Z,102209.19
2022-12-03T17:50:39.784Z,102206.75
2022-12-03T17:53:43.530Z,102203.44
2022-12-03T17:56:13.612Z,102204.34
2022-12-03T17:58:42.877Z,102203.44
2022-12-03T18:01:49.178Z,102197.31
2022-12-03T18:04:26.950Z,102199.25
2022-12-03T18:06:58.901Z,102203.13
2022-12-03T18:09:30.216Z,102205.28
2022-12-03T18:11:56.609Z,102198.00
2022-12-03T18:14:36.720Z,102197.88
2022-12-03T18:17:05.778Z,102196.88
2022-12-03T18:19:34.502Z,102189.94
2022-12-03T18:22:00.853Z,102182.13
2022-12-03T18:24:39.748Z,102176.25
2022-12-03T18:27:06.205Z,102180.00
2022-12-03T18:29:33.428Z,102181.91
2022-12-03T18:32:03.847Z,102177.75
2022-12-03T18:34:30.170Z,102182.84
2022-12-03T18:36:59.599Z,102177.56
2022-12-03T18:39:39.730Z,102183.69
2022-12-03T18:42:22.286Z,102172.59
2022-12-03T18:48:35.648Z,102171.03
2022-12-03T18:51:31.748Z,102182.28
2022-12-03T18:53:58.129Z,102181.31
2022-12-03T18:56:37.749Z,102172.72
2022-12-03T18:59:06.555Z,102177.13
2022-12-03T19:01:34.405Z,102172.72
2022-12-03T19:04:04.447Z,102174.41
2022-12-03T19:06:31.368Z,102169.06
2022-12-03T19:08:57.930Z,102170.97
2022-12-03T19:11:24.737Z,102165.88
2022-12-03T19:13:59.150Z,102174.59
2022-12-03T19:19:19.874Z,102171.16
2022-12-03T19:22:10.854Z,102176.50
2022-12-03T19:24:37.254Z,102172.97
2022-12-03T19:27:11.003Z,102166.06
2022-12-03T19:29:43.122Z,102173.94
2022-12-03T19:32:09.837Z,102166.31
2022-12-03T19:34:38.046Z,102168.00
2022-12-03T19:37:19.822Z,102175.78
2022-12-03T19:39:46.725Z,102168.97
2022-12-03T19:42:15.899Z,102160.56
2022-12-03T19:44:42.276Z,102154.50
2022-12-03T19:47:08.930Z,102162.09
2022-12-03T19:49:40.379Z,102165.53
2022-12-03T19:52:06.698Z,102158.63
2022-12-03T19:54:33.020Z,102148.38
2022-12-03T19:57:08.743Z,102155.34
2022-12-03T19:59:35.418Z,102149.38
2022-12-03T20:02:33.612Z,102146.03
2022-12-03T20:05:02.515Z,102151.25
2022-12-03T20:07:57.362Z,102152.94
2022-12-03T20:10:23.802Z,102157.13
2022-12-03T20:12:52.948Z,102152.75
2022-12-03T20:15:19.365Z,102163.13
2022-12-03T20:18:32.534Z,102157.31
2022-12-03T20:28:32.794Z,102157.97
2022-12-03T20:31:49.363Z,102155.41
2022-12-03T20:34:15.799Z,102147.59
2022-12-03T20:36:51.346Z,102148.56
2022-12-03T20:39:17.754Z,102143.50
2022-12-03T20:41:52.998Z,102142.75
2022-12-03T20:44:19.399Z,102145.38
2022-12-03T20:46:48.259Z,102143.69
2022-12-03T20:49:20.951Z,102144.53
2022-12-03T20:51:52.569Z,102143.56
2022-12-03T20:54:22.123Z,102131.59
2022-12-03T20:56:48.733Z,102125.75
2022-12-03T20:59:24.674Z,102125.00
2022-12-03T21:01:58.965Z,102115.50
2022-12-03T21:04:27.998Z,102122.44
2022-12-03T21:06:54.310Z,102127.59
2022-12-03T21:09:23.610Z,102121.63
2022-12-03T21:11:51.364Z,102122.44
2022-12-03T21:14:17.780Z,102116.41
2022-12-03T21:17:11.637Z,102113.84
2022-12-03T21:19:38.281Z,102119.00
2022-12-03T21:22:10.808Z,102126.84
2022-12-03T21:24:38.830Z,102131.94
2022-12-03T21:27:15.699Z,102126.78
2022-12-03T21:29:44.791Z,102120.91
2022-12-03T21:32:11.685Z,102119.19
2022-12-03T21:34:38.063Z,102124.38
2022-12-03T21:37:04.611Z,102125.28
2022-12-03T21:39:31.157Z,102111.56
2022-12-03T21:42:34.686Z,102116.66
2022-12-03T21:44:52.374Z,102117.53
2022-12-03T21:47:36.366Z,102114.06
2022-12-03T21:50:12.480Z,102119.28
2022-12-03T21:52:38.838Z,102121.75
2022-12-03T21:55:09.591Z,102120.91
2022-12-03T21:57:36.442Z,102125.09
2022-12-03T22:00:37.246Z,102123.34
2022-12-03T22:03:03.808Z,102114.91
2022-12-03T22:05:43.419Z,102118.31
2022-12-03T22:10:53.424Z,102105.44
2022-12-03T22:13:24.116Z,102111.56
2022-12-03T22:15:50.516Z,102106.34
2022-12-03T22:18:46.925Z,102110.59
2022-12-03T22:21:18.538Z,102112.25
2022-12-03T22:23:48.596Z,102105.44
2022-12-03T22:26:24.737Z,102112.13
2022-12-03T22:28:54.054Z,102112.97
2022-12-03T22:31:35.661Z,102109.53
2022-12-03T22:34:02.395Z,102104.38
2022-12-03T22:36:32.175Z,102112.84
2022-12-03T22:38:58.580Z,102115.31
2022-12-03T22:41:39.879Z,102107.56
2022-12-03T22:44:06.226Z,102111.78
2022-12-03T22:49:16.012Z,102104.06
2022-12-03T22:51:46.087Z,102098.91
2022-12-03T22:54:12.653Z,102099.78
2022-12-03T22:56:41.903Z,102100.56
2022-12-03T22:59:09.678Z,102095.41
2022-12-03T23:08:07.590Z,102091.81
2022-12-03T23:10:40.088Z,102090.00
2022-12-03T23:13:08.138Z,102085.81
2022-12-03T23:15:51.895Z,102084.13
2022-12-03T23:18:20.284Z,102078.97
2022-12-03T23:23:45.307Z,102075.69
2022-12-03T23:29:37.486Z,102084.19
2022-12-03T23:32:42.435Z,102086.81
2022-12-03T23:35:09.211Z,102083.34
2022-12-03T23:37:35.624Z,102094.50
2022-12-03T23:43:35.275Z,102085.09
2022-12-03T23:46:08.228Z,102091.09
2022-12-03T23:48:37.811Z,102095.41
2022-12-03T23:51:08.932Z,102090.25
2022-12-03T23:53:39.923Z,102091.16
2022-12-03T23:56:09.646Z,102084.13
2022-12-03T23:58:36.488Z,102080.78
